Terminal Aerodrome Forecast
Issued by NWS

Home | Current Version | Previous Version | Text Only | Print | Product List | Glossary On
Versions: 1 2 3 4 5 6 7 8 9 10 11 12 13 14 15 16 17 18 19 20 21 22 23 24 25 26
000
FTUS46 KOTX 280115 AAA
TAFCOE
TAF AMD
KCOE 280115Z 2801/2824 20004KT 6SM -SHSN SCT012 BKN020 OVC040
      TEMPO 2801/2803 SCT050 OVC120
     FM280300 19004KT 4SM -SN OVC018
     FM280500 17005KT 3/4SM -SN OVC009
     FM281100 30005KT 5SM BR BCFG SCT008 OVC012
     FM281800 26006KT P6SM BKN020=

USA.gov is the U.S. government's official web portal to all federal, state and local government web resources and services.